createdAt,value
2017-06-13T00:00:27.785Z,0
2017-06-13T00:01:29.208Z,0
2017-06-13T00:02:30.634Z,0
2017-06-13T00:03:32.067Z,0
2017-06-13T00:04:33.497Z,0
2017-06-13T00:05:34.920Z,0
2017-06-13T00:06:36.345Z,0
2017-06-13T00:07:37.779Z,0
2017-06-13T00:08:39.203Z,0
2017-06-13T00:09:40.633Z,0
2017-06-13T00:10:42.051Z,0
2017-06-13T00:11:43.484Z,0
2017-06-13T00:12:44.916Z,0
2017-06-13T00:13:46.345Z,0
2017-06-13T00:14:47.777Z,0
2017-06-13T00:15:49.204Z,0
2017-06-13T00:16:50.646Z,0
2017-06-13T00:17:52.079Z,0
2017-06-13T00:18:53.513Z,0
2017-06-13T00:19:54.942Z,0
2017-06-13T00:20:56.367Z,0
2017-06-13T00:21:57.798Z,0
2017-06-13T00:22:59.220Z,0
2017-06-13T00:24:00.658Z,0
2017-06-13T00:25:02.081Z,0
2017-06-13T00:26:03.509Z,0
2017-06-13T00:27:04.937Z,0
2017-06-13T00:28:06.366Z,0
2017-06-13T00:29:07.798Z,0
2017-06-13T00:30:09.226Z,0
2017-06-13T00:31:10.652Z,0
2017-06-13T00:32:12.082Z,0
2017-06-13T00:33:13.521Z,0
2017-06-13T00:34:14.978Z,0
2017-06-13T00:35:16.400Z,0
2017-06-13T00:36:17.827Z,0
2017-06-13T00:37:19.253Z,0
2017-06-13T00:38:20.789Z,0
2017-06-13T00:39:22.219Z,0
2017-06-13T00:40:23.645Z,0
2017-06-13T00:41:25.070Z,0
2017-06-13T00:42:26.503Z,0
2017-06-13T00:43:27.932Z,0
2017-06-13T00:44:29.367Z,0
2017-06-13T00:45:30.870Z,0
2017-06-13T00:46:32.293Z,0
2017-06-13T00:47:33.721Z,0
2017-06-13T00:48:35.154Z,0
2017-06-13T00:49:36.636Z,0
2017-06-13T00:50:38.070Z,0
2017-06-13T00:51:39.497Z,0
2017-06-13T00:52:40.924Z,0
2017-06-13T00:53:42.362Z,0
2017-06-13T00:54:43.797Z,0
2017-06-13T00:55:45.306Z,0
2017-06-13T00:56:46.740Z,0
2017-06-13T00:57:48.172Z,0
2017-06-13T00:58:49.601Z,0
2017-06-13T00:59:51.074Z,0
2017-06-13T01:00:52.494Z,0
2017-06-13T01:01:53.929Z,0
2017-06-13T01:02:55.426Z,0
2017-06-13T01:03:56.872Z,0
2017-06-13T01:04:58.314Z,0
2017-06-13T01:05:59.739Z,0
2017-06-13T01:07:01.192Z,0
2017-06-13T01:08:02.624Z,0
2017-06-13T01:09:04.057Z,0
2017-06-13T01:10:05.488Z,0
2017-06-13T01:11:06.928Z,0
2017-06-13T01:12:08.358Z,0
2017-06-13T01:13:09.782Z,0
2017-06-13T01:14:11.216Z,0
2017-06-13T01:15:12.656Z,0
2017-06-13T01:16:14.086Z,0
2017-06-13T01:17:15.579Z,0
2017-06-13T01:18:17.081Z,0
2017-06-13T01:19:18.514Z,0
2017-06-13T01:20:19.937Z,0
2017-06-13T01:21:21.365Z,0
2017-06-13T01:22:22.791Z,0
2017-06-13T01:23:24.224Z,0
2017-06-13T01:24:25.650Z,0
2017-06-13T01:25:27.088Z,0
2017-06-13T01:26:28.520Z,0
2017-06-13T01:27:29.948Z,0
2017-06-13T01:28:31.392Z,0
2017-06-13T01:29:32.826Z,0
2017-06-13T01:30:34.252Z,0
2017-06-13T01:31:35.676Z,0
2017-06-13T01:32:37.113Z,0
2017-06-13T01:33:38.542Z,0
2017-06-13T01:34:39.973Z,0
2017-06-13T01:35:41.391Z,0
2017-06-13T01:36:42.815Z,0
2017-06-13T01:37:44.245Z,0
2017-06-13T01:38:45.677Z,0
2017-06-13T01:39:47.109Z,0
2017-06-13T01:40:48.534Z,0
2017-06-13T01:41:49.962Z,0
2017-06-13T01:42:51.396Z,0
2017-06-13T01:43:52.827Z,0
2017-06-13T01:44:54.255Z,0
2017-06-13T01:45:55.686Z,0
2017-06-13T01:46:57.113Z,0
2017-06-13T01:47:58.540Z,0
2017-06-13T01:48:59.968Z,0
2017-06-13T01:50:01.392Z,0
2017-06-13T01:51:02.820Z,0
2017-06-13T01:52:04.246Z,0
2017-06-13T01:53:05.676Z,0
2017-06-13T01:54:07.105Z,0
2017-06-13T01:55:08.538Z,0
2017-06-13T01:56:09.962Z,0
2017-06-13T01:57:11.397Z,0
2017-06-13T01:58:12.826Z,0
2017-06-13T01:59:14.247Z,0
2017-06-13T02:00:15.681Z,0
2017-06-13T02:01:17.123Z,0
2017-06-13T02:02:18.549Z,0
2017-06-13T02:03:19.977Z,0
2017-06-13T02:04:21.402Z,0
2017-06-13T02:05:22.837Z,0
2017-06-13T02:06:24.268Z,0
2017-06-13T02:07:25.692Z,0
2017-06-13T02:08:27.123Z,0
2017-06-13T02:09:28.546Z,0
2017-06-13T02:10:29.970Z,0
2017-06-13T02:11:31.399Z,0
2017-06-13T02:12:32.826Z,0
2017-06-13T02:13:34.249Z,0
2017-06-13T02:14:35.696Z,0
2017-06-13T02:15:37.124Z,0
2017-06-13T02:16:38.551Z,0
2017-06-13T02:17:39.978Z,0
2017-06-13T02:18:41.405Z,0
2017-06-13T02:19:42.831Z,0
2017-06-13T02:20:44.260Z,0
2017-06-13T02:21:45.686Z,0
2017-06-13T02:22:47.123Z,0
2017-06-13T02:23:48.547Z,0
2017-06-13T02:24:49.970Z,0
2017-06-13T02:25:51.401Z,0
2017-06-13T02:26:52.831Z,0
2017-06-13T02:27:54.256Z,0
2017-06-13T02:28:55.684Z,0
2017-06-13T02:29:57.120Z,0
2017-06-13T02:30:58.637Z,0
2017-06-13T02:32:00.069Z,0
2017-06-13T02:33:01.497Z,0
2017-06-13T02:34:02.926Z,0
2017-06-13T02:35:04.358Z,0
2017-06-13T02:36:05.785Z,0
2017-06-13T02:37:07.213Z,0
2017-06-13T02:38:08.646Z,0
2017-06-13T02:39:10.069Z,0
2017-06-13T02:40:11.497Z,0
2017-06-13T02:41:12.925Z,0
2017-06-13T02:42:14.351Z,0
2017-06-13T02:43:15.783Z,0
2017-06-13T02:44:17.215Z,0
2017-06-13T02:45:18.637Z,4
2017-06-13T02:46:20.064Z,4
2017-06-13T02:47:21.491Z,0
2017-06-13T02:48:22.921Z,0
2017-06-13T02:49:24.344Z,0
2017-06-13T02:50:25.772Z,4
2017-06-13T02:51:27.199Z,4
2017-06-13T02:52:28.625Z,0
2017-06-13T02:53:30.053Z,4
2017-06-13T02:54:31.485Z,4
2017-06-13T02:55:32.912Z,0
2017-06-13T02:56:34.345Z,4
2017-06-13T02:57:35.768Z,4
2017-06-13T02:58:37.200Z,4
2017-06-13T02:59:38.628Z,8
2017-06-13T03:00:40.057Z,8
2017-06-13T03:01:41.487Z,8
2017-06-13T03:02:42.911Z,8
2017-06-13T03:03:44.333Z,8
2017-06-13T03:04:45.764Z,8
2017-06-13T03:05:47.193Z,8
2017-06-13T03:06:48.622Z,8
2017-06-13T03:07:50.062Z,12
2017-06-13T03:08:51.484Z,8
2017-06-13T03:09:52.907Z,8
2017-06-13T03:10:54.347Z,12
2017-06-13T03:11:55.787Z,16
2017-06-13T03:12:57.218Z,20
2017-06-13T03:13:58.642Z,16
2017-06-13T03:15:00.068Z,20
2017-06-13T03:16:01.490Z,20
2017-06-13T03:17:02.932Z,20
2017-06-13T03:18:04.358Z,24
2017-06-13T03:19:05.786Z,24
2017-06-13T03:20:07.215Z,28
2017-06-13T03:21:08.642Z,32
2017-06-13T03:22:10.078Z,36
2017-06-13T03:23:11.507Z,36
2017-06-13T03:24:12.940Z,44
2017-06-13T03:25:14.365Z,40
2017-06-13T03:26:15.793Z,44
2017-06-13T03:27:17.219Z,44
2017-06-13T03:28:18.647Z,48
2017-06-13T03:29:20.072Z,56
2017-06-13T03:30:21.507Z,56
2017-06-13T03:31:22.935Z,60
2017-06-13T03:32:24.364Z,64
2017-06-13T03:33:25.790Z,68
2017-06-13T03:34:27.221Z,72
2017-06-13T03:35:28.647Z,76
2017-06-13T03:36:30.080Z,76
2017-06-13T03:37:31.503Z,72
2017-06-13T03:38:32.935Z,80
2017-06-13T03:39:34.362Z,76
2017-06-13T03:40:35.786Z,84
2017-06-13T03:41:37.221Z,84
2017-06-13T03:42:38.759Z,80
2017-06-13T03:43:40.193Z,72
2017-06-13T03:44:41.617Z,76
2017-06-13T03:45:43.047Z,84
2017-06-13T03:46:45.269Z,84
2017-06-13T03:47:46.695Z,84
2017-06-13T03:48:48.123Z,92
2017-06-13T03:49:49.556Z,100
2017-06-13T03:50:50.985Z,100
2017-06-13T03:51:52.418Z,108
2017-06-13T03:52:53.847Z,116
2017-06-13T03:53:55.275Z,116
2017-06-13T03:54:56.708Z,128
2017-06-13T03:55:58.135Z,132
2017-06-13T03:56:59.569Z,140
2017-06-13T03:58:00.994Z,144
2017-06-13T03:59:02.428Z,144
2017-06-13T04:00:03.852Z,148
2017-06-13T04:01:05.277Z,160
2017-06-13T04:02:06.706Z,168
2017-06-13T04:03:08.136Z,176
2017-06-13T04:04:09.568Z,176
2017-06-13T04:05:11.005Z,176
2017-06-13T04:06:12.428Z,172
2017-06-13T04:07:13.875Z,176
2017-06-13T04:08:15.307Z,192
2017-06-13T04:09:16.736Z,200
2017-06-13T04:10:18.164Z,204
2017-06-13T04:11:19.589Z,204
2017-06-13T04:12:21.022Z,212
2017-06-13T04:13:22.450Z,216
2017-06-13T04:14:23.876Z,224
2017-06-13T04:15:25.309Z,232
2017-06-13T04:16:26.739Z,248
2017-06-13T04:17:28.173Z,252
2017-06-13T04:18:29.595Z,256
2017-06-13T04:19:31.032Z,264
2017-06-13T04:20:32.452Z,272
2017-06-13T04:21:33.893Z,260
2017-06-13T04:22:35.327Z,260
2017-06-13T04:23:36.764Z,252
2017-06-13T04:24:38.199Z,260
2017-06-13T04:25:39.626Z,252
2017-06-13T04:26:41.058Z,256
2017-06-13T04:27:42.489Z,256
2017-06-13T04:28:43.919Z,252
2017-06-13T04:29:45.347Z,268
2017-06-13T04:30:46.780Z,272
2017-06-13T04:31:48.206Z,276
2017-06-13T04:32:49.639Z,272
2017-06-13T04:33:51.070Z,288
2017-06-13T04:34:52.500Z,336
2017-06-13T04:35:53.931Z,364
2017-06-13T04:36:55.360Z,348
2017-06-13T04:37:56.800Z,364
2017-06-13T04:38:58.223Z,376
2017-06-13T04:39:59.648Z,376
2017-06-13T04:41:01.116Z,408
2017-06-13T04:42:02.544Z,392
2017-06-13T04:43:03.971Z,408
2017-06-13T04:44:05.415Z,392
2017-06-13T04:45:06.884Z,392
2017-06-13T04:46:08.306Z,360
2017-06-13T04:47:09.740Z,356
2017-06-13T04:48:11.172Z,360
2017-06-13T04:49:12.602Z,372
2017-06-13T04:50:14.037Z,376
2017-06-13T04:51:15.467Z,356
2017-06-13T04:52:16.970Z,376
2017-06-13T04:53:18.408Z,360
2017-06-13T04:54:19.845Z,348
2017-06-13T04:55:21.280Z,380
2017-06-13T04:56:22.705Z,416
2017-06-13T04:57:24.136Z,440
2017-06-13T04:58:25.573Z,424
2017-06-13T04:59:27.013Z,460
2017-06-13T05:00:28.446Z,424
2017-06-13T05:01:29.881Z,396
2017-06-13T05:02:31.325Z,388
2017-06-13T05:03:32.762Z,384
2017-06-13T05:04:34.206Z,388
2017-06-13T05:05:35.629Z,384
2017-06-13T05:06:37.055Z,380
2017-06-13T05:07:38.498Z,376
2017-06-13T05:08:39.928Z,380
2017-06-13T05:09:41.356Z,392
2017-06-13T05:10:42.784Z,396
2017-06-13T05:11:44.218Z,388
2017-06-13T05:12:45.650Z,380
2017-06-13T05:13:47.080Z,412
2017-06-13T05:14:48.506Z,420
2017-06-13T05:15:49.938Z,420
2017-06-13T05:16:51.372Z,388
2017-06-13T05:17:52.800Z,368
2017-06-13T05:18:54.228Z,360
2017-06-13T05:19:55.665Z,372
2017-06-13T05:20:57.086Z,384
2017-06-13T05:21:58.520Z,416
2017-06-13T05:22:59.957Z,444
2017-06-13T05:24:01.391Z,416
2017-06-13T05:25:02.823Z,428
2017-06-13T05:26:04.259Z,408
2017-06-13T05:27:05.690Z,380
2017-06-13T05:28:07.122Z,384
2017-06-13T05:29:08.554Z,440
2017-06-13T05:30:09.977Z,428
2017-06-13T05:31:11.406Z,420
2017-06-13T05:32:12.837Z,432
2017-06-13T05:33:14.284Z,436
2017-06-13T05:34:15.712Z,420
2017-06-13T05:35:17.138Z,388
2017-06-13T05:36:18.567Z,392
2017-06-13T05:37:19.996Z,412
2017-06-13T05:38:21.431Z,424
2017-06-13T05:39:22.857Z,436
2017-06-13T05:40:24.289Z,420
2017-06-13T05:41:25.718Z,476
2017-06-13T05:42:27.143Z,460
2017-06-13T05:43:28.578Z,436
2017-06-13T05:44:30.010Z,420
2017-06-13T05:45:31.453Z,440
2017-06-13T05:46:32.879Z,424
2017-06-13T05:47:34.305Z,420
2017-06-13T05:48:35.741Z,420
2017-06-13T05:49:37.169Z,416
2017-06-13T05:50:38.602Z,412
2017-06-13T05:51:40.044Z,408
2017-06-13T05:52:41.474Z,416
2017-06-13T05:53:42.901Z,412
2017-06-13T05:54:44.323Z,416
2017-06-13T05:55:45.759Z,416
2017-06-13T05:56:47.191Z,416
2017-06-13T05:57:48.625Z,416
2017-06-13T05:58:50.063Z,424
2017-06-13T05:59:51.494Z,464
2017-06-13T06:00:52.929Z,468
2017-06-13T06:01:54.357Z,460
2017-06-13T06:02:55.789Z,472
2017-06-13T06:03:57.220Z,460
2017-06-13T06:04:58.644Z,516
2017-06-13T06:06:00.073Z,476
2017-06-13T06:07:01.497Z,448
2017-06-13T06:08:02.933Z,420
2017-06-13T06:09:04.361Z,432
2017-06-13T06:10:05.798Z,444
2017-06-13T06:11:07.222Z,452
2017-06-13T06:12:08.646Z,516
2017-06-13T06:13:10.084Z,500
2017-06-13T06:14:11.516Z,492
2017-06-13T06:15:12.943Z,524
2017-06-13T06:16:14.370Z,512
2017-06-13T06:17:15.801Z,516
2017-06-13T06:18:17.324Z,500
2017-06-13T06:19:18.761Z,516
2017-06-13T06:20:20.202Z,608
2017-06-13T06:21:21.632Z,656
2017-06-13T06:22:23.072Z,732
2017-06-13T06:23:24.503Z,684
2017-06-13T06:24:25.937Z,672
2017-06-13T06:25:27.362Z,736
2017-06-13T06:26:28.794Z,776
2017-06-13T06:27:30.226Z,740
2017-06-13T06:28:31.658Z,720
2017-06-13T06:29:33.096Z,772
2017-06-13T06:30:34.549Z,764
2017-06-13T06:31:35.982Z,816
2017-06-13T06:32:37.417Z,948
2017-06-13T06:33:38.875Z,1084
2017-06-13T06:34:40.311Z,1024
2017-06-13T06:35:41.744Z,1084
2017-06-13T06:36:43.175Z,916
2017-06-13T06:37:44.599Z,736
2017-06-13T06:38:46.029Z,920
2017-06-13T06:39:47.473Z,916
2017-06-13T06:40:48.897Z,772
2017-06-13T06:41:50.335Z,956
2017-06-13T06:42:51.771Z,932
2017-06-13T06:43:53.202Z,792
2017-06-13T06:44:54.631Z,832
2017-06-13T06:45:56.059Z,1152
2017-06-13T06:46:57.493Z,952
2017-06-13T06:47:58.925Z,716
2017-06-13T06:49:00.353Z,680
2017-06-13T06:50:01.782Z,720
2017-06-13T06:51:03.210Z,816
2017-06-13T06:52:04.643Z,972
2017-06-13T06:53:06.067Z,1028
2017-06-13T06:54:07.509Z,884
2017-06-13T06:55:08.935Z,1060
2017-06-13T06:56:10.366Z,916
2017-06-13T06:57:11.801Z,992
2017-06-13T06:58:13.228Z,920
2017-06-13T06:59:14.664Z,992
2017-06-13T07:00:16.112Z,1148
2017-06-13T07:01:17.542Z,1228
2017-06-13T07:02:18.971Z,1288
2017-06-13T07:03:20.401Z,1392
2017-06-13T07:04:21.833Z,1212
2017-06-13T07:05:23.265Z,1168
2017-06-13T07:06:24.694Z,1036
2017-06-13T07:07:31.696Z,1088
2017-06-13T07:08:32.872Z,1136
2017-06-13T07:09:34.311Z,844
2017-06-13T07:10:35.749Z,696
2017-06-13T07:11:37.178Z,612
2017-06-13T07:12:38.620Z,696
2017-06-13T07:13:40.053Z,1088
2017-06-13T07:14:41.491Z,1132
2017-06-13T07:15:42.918Z,1072
2017-06-13T07:16:44.354Z,1000
2017-06-13T07:17:45.793Z,864
2017-06-13T07:18:47.224Z,876
2017-06-13T07:19:48.663Z,1004
2017-06-13T07:20:50.097Z,1260
2017-06-13T07:21:51.532Z,1268
2017-06-13T07:22:52.961Z,1224
2017-06-13T07:23:54.395Z,1220
2017-06-13T07:24:55.832Z,988
2017-06-13T07:25:57.260Z,840
2017-06-13T07:26:58.689Z,864
2017-06-13T07:28:00.115Z,920
2017-06-13T07:29:01.545Z,768
2017-06-13T07:30:02.980Z,672
2017-06-13T07:31:04.409Z,584
2017-06-13T07:32:05.839Z,556
2017-06-13T07:33:07.265Z,560
2017-06-13T07:34:08.697Z,652
2017-06-13T07:35:10.133Z,808
2017-06-13T07:36:11.567Z,916
2017-06-13T07:37:13.001Z,1012
2017-06-13T07:38:14.428Z,1132
2017-06-13T07:39:15.860Z,1088
2017-06-13T07:40:17.297Z,1424
2017-06-13T07:41:18.738Z,1516
2017-06-13T07:42:20.174Z,1416
2017-06-13T07:43:21.608Z,1176
2017-06-13T07:44:23.038Z,1084
2017-06-13T07:45:24.478Z,1144
2017-06-13T07:46:25.908Z,1044
2017-06-13T07:47:27.344Z,952
2017-06-13T07:48:28.772Z,868
2017-06-13T07:49:30.204Z,780
2017-06-13T07:50:31.648Z,712
2017-06-13T07:51:33.074Z,732
2017-06-13T07:52:34.509Z,644
2017-06-13T07:53:35.946Z,500
2017-06-13T07:54:37.372Z,484
2017-06-13T07:55:38.803Z,712
2017-06-13T07:56:40.239Z,1024
2017-06-13T07:57:41.669Z,1112
2017-06-13T07:58:43.106Z,1204
2017-06-13T07:59:44.540Z,1192
2017-06-13T08:00:45.983Z,996
2017-06-13T08:01:47.414Z,972
2017-06-13T08:02:48.847Z,904
2017-06-13T08:03:50.279Z,848
2017-06-13T08:04:51.712Z,912
2017-06-13T08:05:53.145Z,1052
2017-06-13T08:06:54.584Z,1020
2017-06-13T08:07:56.013Z,1040
2017-06-13T08:08:57.443Z,1112
2017-06-13T08:09:58.874Z,1232
2017-06-13T08:11:00.318Z,1336
2017-06-13T08:12:01.752Z,1524
2017-06-13T08:13:03.181Z,1568
2017-06-13T08:14:04.611Z,1444
2017-06-13T08:15:06.054Z,1744
2017-06-13T08:16:07.492Z,1700
2017-06-13T08:17:08.921Z,1716
2017-06-13T08:18:10.352Z,1532
2017-06-13T08:19:11.784Z,1724
2017-06-13T08:20:14.187Z,1792
2017-06-13T08:21:15.616Z,1736
2017-06-13T08:22:17.047Z,1684
2017-06-13T08:23:18.486Z,1588
2017-06-13T08:24:19.910Z,1348
2017-06-13T08:25:21.346Z,1188
2017-06-13T08:26:22.774Z,1156
2017-06-13T08:27:24.222Z,1316
2017-06-13T08:28:25.659Z,1436
2017-06-13T08:29:27.100Z,1360
2017-06-13T08:30:28.539Z,1160
2017-06-13T08:31:29.972Z,1160
2017-06-13T08:32:31.398Z,1140
2017-06-13T08:33:32.859Z,1276
2017-06-13T08:34:34.298Z,1368
2017-06-13T08:35:35.738Z,1344
2017-06-13T08:36:37.170Z,1244
2017-06-13T08:37:38.598Z,952
2017-06-13T08:38:40.028Z,972
2017-06-13T08:39:41.489Z,940
2017-06-13T08:40:42.924Z,1008
2017-06-13T08:41:44.359Z,1104
2017-06-13T08:42:45.798Z,1248
2017-06-13T08:43:47.282Z,1336
2017-06-13T08:44:48.711Z,1392
2017-06-13T08:45:50.146Z,1564
2017-06-13T08:46:51.578Z,1824
2017-06-13T08:47:53.029Z,1792
2017-06-13T08:48:54.470Z,2076
2017-06-13T08:49:55.915Z,1716
2017-06-13T08:50:57.352Z,1684
2017-06-13T08:51:58.782Z,1748
2017-06-13T08:53:00.220Z,1532
2017-06-13T08:54:01.659Z,1420
2017-06-13T08:55:03.091Z,1136
2017-06-13T08:56:04.522Z,924
2017-06-13T08:57:05.948Z,900
2017-06-13T08:58:07.377Z,816
2017-06-13T08:59:08.812Z,708
2017-06-13T09:00:10.238Z,756
2017-06-13T09:01:12.435Z,700
2017-06-13T09:02:13.871Z,784
2017-06-13T09:03:15.306Z,852
2017-06-13T09:04:16.741Z,948
2017-06-13T09:05:18.168Z,472
2017-06-13T09:06:19.604Z,1316
2017-06-13T09:07:21.037Z,1304
2017-06-13T09:08:22.470Z,1360
2017-06-13T09:09:23.908Z,1524
2017-06-13T09:10:25.339Z,1504
2017-06-13T09:11:26.779Z,1464
2017-06-13T09:12:28.208Z,1324
2017-06-13T09:13:29.641Z,1208
2017-06-13T09:14:31.069Z,1212
2017-06-13T09:15:32.498Z,1288
2017-06-13T09:16:33.936Z,1676
2017-06-13T09:17:35.369Z,1956
2017-06-13T09:18:36.806Z,1736
2017-06-13T09:19:38.245Z,1624
2017-06-13T09:20:39.682Z,1864
2017-06-13T09:21:41.119Z,1880
2017-06-13T09:22:42.560Z,1924
2017-06-13T09:23:43.992Z,2008
2017-06-13T09:24:45.434Z,2100
2017-06-13T09:25:46.869Z,2344
2017-06-13T09:26:48.310Z,2568
2017-06-13T09:27:49.744Z,2492
2017-06-13T09:28:51.175Z,2344
2017-06-13T09:29:52.611Z,2112
2017-06-13T09:30:54.055Z,1872
2017-06-13T09:31:55.505Z,1752
2017-06-13T09:32:56.938Z,1508
2017-06-13T09:33:58.383Z,1124
2017-06-13T09:34:59.820Z,1036
2017-06-13T09:36:01.255Z,968
2017-06-13T09:37:02.688Z,968
2017-06-13T09:38:04.127Z,1016
2017-06-13T09:39:05.559Z,1004
2017-06-13T09:40:06.990Z,1052
2017-06-13T09:41:08.432Z,1172
2017-06-13T09:42:09.867Z,1284
2017-06-13T09:43:11.301Z,1452
2017-06-13T09:44:12.735Z,1596
2017-06-13T09:45:14.172Z,1700
2017-06-13T09:46:15.610Z,1788
2017-06-13T09:47:17.052Z,1636
2017-06-13T09:48:18.490Z,1700
2017-06-13T09:49:19.922Z,1576
2017-06-13T09:50:21.353Z,1472
2017-06-13T09:51:22.786Z,1404
2017-06-13T09:52:24.222Z,1548
2017-06-13T09:53:25.661Z,2044
2017-06-13T09:54:27.102Z,1744
2017-06-13T09:55:28.539Z,1492
2017-06-13T09:56:29.988Z,1276
2017-06-13T09:57:31.416Z,1100
2017-06-13T09:58:32.854Z,976
2017-06-13T09:59:34.290Z,908
2017-06-13T10:00:35.722Z,856
2017-06-13T10:01:37.159Z,820
2017-06-13T10:02:38.589Z,720
2017-06-13T10:03:40.019Z,604
2017-06-13T10:04:41.448Z,580
2017-06-13T10:05:42.885Z,608
2017-06-13T10:06:44.324Z,636
2017-06-13T10:07:45.759Z,644
2017-06-13T10:08:47.188Z,652
2017-06-13T10:09:48.618Z,652
2017-06-13T10:10:50.054Z,612
2017-06-13T10:11:51.497Z,624
2017-06-13T10:12:52.922Z,660
2017-06-13T10:13:54.356Z,780
2017-06-13T10:14:55.789Z,952
2017-06-13T10:15:57.225Z,1200
2017-06-13T10:16:58.662Z,1468
2017-06-13T10:18:00.095Z,1748
2017-06-13T10:19:01.531Z,1956
2017-06-13T10:20:02.968Z,2036
2017-06-13T10:21:04.409Z,2152
2017-06-13T10:22:05.844Z,2328
2017-06-13T10:23:07.285Z,2468
2017-06-13T10:24:08.722Z,2296
2017-06-13T10:25:10.161Z,2024
2017-06-13T10:26:11.598Z,1808
2017-06-13T10:27:13.036Z,1568
2017-06-13T10:28:14.464Z,1432
2017-06-13T10:29:15.899Z,1248
2017-06-13T10:30:17.362Z,1064
2017-06-13T10:31:18.799Z,972
2017-06-13T10:32:20.230Z,888
2017-06-13T10:33:21.671Z,888
2017-06-13T10:34:23.110Z,1004
2017-06-13T10:35:24.538Z,1152
2017-06-13T10:36:25.993Z,1384
2017-06-13T10:37:27.434Z,1584
2017-06-13T10:38:28.862Z,1780
2017-06-13T10:39:30.289Z,1872
2017-06-13T10:40:31.731Z,1956
2017-06-13T10:41:33.160Z,2060
2017-06-13T10:42:34.600Z,2160
2017-06-13T10:43:36.031Z,2284
2017-06-13T10:44:37.463Z,2260
2017-06-13T10:45:38.906Z,2268
2017-06-13T10:46:40.345Z,2200
2017-06-13T10:47:41.793Z,2160
2017-06-13T10:48:43.231Z,2016
2017-06-13T10:49:44.663Z,1992
2017-06-13T10:50:46.098Z,2088
2017-06-13T10:51:47.530Z,1976
2017-06-13T10:52:48.983Z,1896
2017-06-13T10:53:50.419Z,1848
2017-06-13T10:54:51.862Z,1764
2017-06-13T10:55:53.292Z,1660
2017-06-13T10:56:54.734Z,1452
2017-06-13T10:57:56.169Z,1196
2017-06-13T10:58:57.618Z,1036
2017-06-13T10:59:59.054Z,928
2017-06-13T11:01:00.479Z,936
2017-06-13T11:02:01.918Z,968
2017-06-13T11:03:03.362Z,984
2017-06-13T11:04:04.796Z,1052
2017-06-13T11:05:06.231Z,1060
2017-06-13T11:06:07.669Z,760
2017-06-13T11:07:09.107Z,1124
2017-06-13T11:08:10.541Z,1252
2017-06-13T11:09:11.981Z,1432
2017-06-13T11:10:13.419Z,1312
2017-06-13T11:11:14.845Z,1304
2017-06-13T11:12:16.292Z,1492
2017-06-13T11:13:17.734Z,1792
2017-06-13T11:14:19.169Z,2128
2017-06-13T11:15:20.615Z,2344
2017-06-13T11:16:22.054Z,2484
2017-06-13T11:17:23.490Z,2476
2017-06-13T11:18:24.931Z,2444
2017-06-13T11:19:26.367Z,2408
2017-06-13T11:20:27.802Z,2392
2017-06-13T11:21:29.232Z,2232
2017-06-13T11:22:30.675Z,1992
2017-06-13T11:23:32.110Z,1892
2017-06-13T11:24:33.544Z,1880
2017-06-13T11:25:34.973Z,2068
2017-06-13T11:26:36.408Z,2016
2017-06-13T11:27:37.844Z,1668
2017-06-13T11:28:39.269Z,1380
2017-06-13T11:29:40.706Z,1428
2017-06-13T11:30:42.143Z,1508
2017-06-13T11:31:43.579Z,1372
2017-06-13T11:32:45.025Z,1328
2017-06-13T11:33:46.454Z,1276
2017-06-13T11:34:47.885Z,1232
2017-06-13T11:35:49.322Z,1192
2017-06-13T11:36:50.759Z,1208
2017-06-13T11:37:52.186Z,1252
2017-06-13T11:38:53.618Z,1420
2017-06-13T11:39:55.057Z,1432
2017-06-13T11:40:56.480Z,1368
2017-06-13T11:41:57.910Z,1284
2017-06-13T11:42:59.348Z,1284
2017-06-13T11:44:00.782Z,1364
2017-06-13T11:45:02.214Z,1708
2017-06-13T11:46:03.647Z,1960
2017-06-13T11:47:05.081Z,2192
2017-06-13T11:48:06.521Z,2284
2017-06-13T11:49:07.955Z,2508
2017-06-13T11:50:09.388Z,2636
2017-06-13T11:51:10.820Z,2632
2017-06-13T11:52:12.250Z,2788
2017-06-13T11:53:13.688Z,2804
2017-06-13T11:54:15.125Z,2692
2017-06-13T11:55:16.551Z,2352
2017-06-13T11:56:17.989Z,2088
2017-06-13T11:57:19.415Z,1864
2017-06-13T11:58:20.856Z,1644
2017-06-13T11:59:22.291Z,1464
2017-06-13T12:00:23.729Z,1372
2017-06-13T12:01:25.166Z,1232
2017-06-13T12:02:26.601Z,1164
2017-06-13T12:03:28.040Z,1092
2017-06-13T12:04:29.475Z,1028
2017-06-13T12:05:30.906Z,980
2017-06-13T12:06:32.338Z,872
2017-06-13T12:07:33.769Z,828
2017-06-13T12:08:35.204Z,868
2017-06-13T12:09:36.635Z,972
2017-06-13T12:10:38.072Z,992
2017-06-13T12:11:39.506Z,880
2017-06-13T12:12:40.936Z,824
2017-06-13T12:13:42.379Z,804
2017-06-13T12:14:43.808Z,808
2017-06-13T12:15:45.263Z,800
2017-06-13T12:16:46.698Z,844
2017-06-13T12:17:48.129Z,888
2017-06-13T12:18:49.566Z,1036
2017-06-13T12:19:50.998Z,1140
2017-06-13T12:20:52.432Z,1252
2017-06-13T12:21:53.858Z,1244
2017-06-13T12:22:55.299Z,1180
2017-06-13T12:23:56.746Z,1088
2017-06-13T12:24:58.178Z,980
2017-06-13T12:25:59.659Z,944
2017-06-13T12:27:01.113Z,920
2017-06-13T12:28:02.542Z,976
2017-06-13T12:29:03.979Z,1108
2017-06-13T12:30:05.418Z,1236
2017-06-13T12:31:06.860Z,1320
2017-06-13T12:32:08.297Z,1432
2017-06-13T12:33:09.723Z,1564
2017-06-13T12:34:11.168Z,1604
2017-06-13T12:35:12.601Z,1532
2017-06-13T12:36:14.033Z,1620
2017-06-13T12:37:15.503Z,1904
2017-06-13T12:38:16.947Z,2300
2017-06-13T12:39:18.380Z,2596
2017-06-13T12:40:19.819Z,2832
2017-06-13T12:41:21.267Z,3028
2017-06-13T12:42:22.713Z,3180
2017-06-13T12:43:24.147Z,3128
2017-06-13T12:44:25.587Z,3020
2017-06-13T12:45:27.022Z,2908
2017-06-13T12:46:28.460Z,2412
2017-06-13T12:47:29.898Z,2136
2017-06-13T12:48:31.343Z,2032
2017-06-13T12:49:32.782Z,2008
2017-06-13T12:50:34.215Z,1952
2017-06-13T12:51:35.660Z,1956
2017-06-13T12:52:37.105Z,2000
2017-06-13T12:53:38.541Z,1952
2017-06-13T12:54:39.983Z,1996
2017-06-13T12:55:41.422Z,1988
2017-06-13T12:56:42.872Z,1852
2017-06-13T12:57:44.313Z,1860
2017-06-13T12:58:45.754Z,1780
2017-06-13T12:59:47.213Z,1696
2017-06-13T13:00:48.658Z,1588
2017-06-13T13:01:50.091Z,1600
2017-06-13T13:02:51.533Z,1676
2017-06-13T13:03:53.099Z,2084
2017-06-13T13:04:54.531Z,2228
2017-06-13T13:05:55.965Z,2316
2017-06-13T13:06:57.424Z,2164
2017-06-13T13:07:58.861Z,2056
2017-06-13T13:09:00.298Z,1916
2017-06-13T13:10:01.736Z,1880
2017-06-13T13:11:03.171Z,1972
2017-06-13T13:12:04.614Z,2060
2017-06-13T13:13:06.048Z,2308
2017-06-13T13:14:07.487Z,2648
2017-06-13T13:15:08.925Z,2864
2017-06-13T13:16:10.358Z,2856
2017-06-13T13:17:11.800Z,2856
2017-06-13T13:18:13.245Z,2660
2017-06-13T13:19:14.685Z,2604
2017-06-13T13:20:16.124Z,2752
2017-06-13T13:21:17.562Z,2952
2017-06-13T13:22:19.001Z,2944
2017-06-13T13:23:20.447Z,2556
2017-06-13T13:24:21.878Z,2528
2017-06-13T13:25:23.386Z,2704
2017-06-13T13:26:24.820Z,2668
2017-06-13T13:27:26.266Z,2580
2017-06-13T13:28:27.703Z,2500
2017-06-13T13:29:29.141Z,2484
2017-06-13T13:30:30.579Z,2316
2017-06-13T13:31:32.015Z,2536
2017-06-13T13:32:33.462Z,2840
2017-06-13T13:33:34.949Z,3184
2017-06-13T13:34:36.381Z,3416
2017-06-13T13:35:37.814Z,3604
2017-06-13T13:36:39.255Z,3800
2017-06-13T13:37:40.684Z,3436
2017-06-13T13:38:42.130Z,3216
2017-06-13T13:39:43.571Z,3048
2017-06-13T13:40:45.010Z,2900
2017-06-13T13:41:46.445Z,3080
2017-06-13T13:42:47.884Z,3128
2017-06-13T13:43:49.322Z,2972
2017-06-13T13:44:50.763Z,3200
2017-06-13T13:45:52.202Z,3136
2017-06-13T13:46:53.640Z,2948
2017-06-13T13:47:55.084Z,2676
2017-06-13T13:48:56.523Z,2848
2017-06-13T13:49:57.965Z,2828
2017-06-13T13:50:59.410Z,2872
2017-06-13T13:52:00.854Z,2720
2017-06-13T13:53:02.293Z,2688
2017-06-13T13:54:03.729Z,3096
2017-06-13T13:55:05.172Z,3272
2017-06-13T13:56:06.608Z,3744
2017-06-13T13:57:08.057Z,3448
2017-06-13T13:58:09.487Z,2880
2017-06-13T13:59:10.925Z,2944
2017-06-13T14:00:12.374Z,1672
2017-06-13T14:01:13.814Z,1396
2017-06-13T14:02:15.247Z,1284
2017-06-13T14:03:16.686Z,1236
2017-06-13T14:04:18.114Z,1196
2017-06-13T14:05:19.550Z,1184
2017-06-13T14:06:20.989Z,1396
2017-06-13T14:07:22.431Z,1536
2017-06-13T14:08:23.858Z,1872